Time;durP1;ratioP1;P1;durP2;ratioP2;P2;SDS_P1;SDS_P2;PMS_P1;PMS_P2;Temp;Humidity;BMP_temperature;BMP_pressure;BME280_temperature;BME280_humidity;BME280_pressure;Samples;Min_cycle;Max_cycle;Signal;HPM_P1;HPM_P2
2021/04/11 00:01:38;;;;;;;44.10;22.30;;;;;;;2.27;60.86;101111.11;1666150;86;21257;-72
2021/04/11 00:04:06;;;;;;;33.83;18.52;;;;;;;2.23;61.74;101105.45;1666487;86;21209;-71
2021/04/11 00:06:34;;;;;;;38.30;17.57;;;;;;;2.17;61.80;101121.39;1667263;85;21212;-72
2021/04/11 00:09:04;;;;;;;40.98;20.82;;;;;;;2.13;61.77;101118.30;1660182;80;21152;-74
2021/04/11 00:11:34;;;;;;;42.80;21.25;;;;;;;2.07;62.84;101117.77;1668734;86;22453;-69
2021/04/11 00:14:06;;;;;;;45.78;22.25;;;;;;;2.01;62.34;101117.72;1702171;84;21214;-68
2021/04/11 00:16:34;;;;;;;53.65;24.10;;;;;;;1.95;62.76;101118.48;1702162;84;21195;-69
2021/04/11 00:19:03;;;;;;;46.90;23.07;;;;;;;1.91;63.07;101118.42;1702433;84;21221;-69
2021/04/11 00:21:32;;;;;;;39.92;21.10;;;;;;;1.86;63.53;101123.15;1702297;84;21246;-68
2021/04/11 00:24:01;;;;;;;45.73;21.15;;;;;;;1.82;62.63;101126.98;1704887;81;21399;-74
2021/04/11 00:26:29;;;;;;;48.02;21.10;;;;;;;1.75;62.14;101128.61;1747504;80;21189;-73
2021/04/11 00:29:04;;;;;;;49.77;21.52;;;;;;;1.71;62.39;101127.24;1696748;84;21155;-74
2021/04/11 00:31:33;;;;;;;39.98;18.05;;;;;;;1.64;63.02;101131.03;1744339;82;21185;-73
2021/04/11 00:34:02;;;;;;;34.20;17.70;;;;;;;1.58;62.53;101127.03;1696845;84;21203;-74
2021/04/11 00:36:31;;;;;;;43.78;19.23;;;;;;;1.54;63.67;101131.75;1697023;84;21265;-74
2021/04/11 00:38:59;;;;;;;38.50;18.52;;;;;;;1.46;62.88;101122.52;1695442;81;21626;-66
2021/04/11 00:41:32;;;;;;;38.98;18.32;;;;;;;1.40;63.26;101131.53;1685921;85;21184;-67
2021/04/11 00:44:01;;;;;;;38.80;17.17;;;;;;;1.33;62.95;101128.35;1685962;85;21168;-68
2021/04/11 00:46:50;;;;;;;32.03;17.07;;;;;;;1.28;63.80;101131.30;1701805;84;21143;-68
2021/04/11 00:49:30;;;;;;;44.25;20.00;;;;;;;1.23;64.20;101131.22;1685661;84;21430;-68
2021/04/11 00:52:00;;;;;;;43.10;19.95;;;;;;;1.19;64.83;101132.02;1701814;84;21212;-69
2021/04/11 00:54:27;;;;;;;43.68;20.77;;;;;;;1.16;65.79;101134.56;1694589;79;21166;-72
2021/04/11 00:56:55;;;;;;;42.13;19.98;;;;;;;1.14;66.24;101133.66;1678783;84;21208;-73
2021/04/11 00:59:23;;;;;;;42.60;21.62;;;;;;;1.11;66.12;101135.34;1678728;85;21683;-73
2021/04/11 01:01:54;;;;;;;38.35;20.15;;;;;;;1.07;65.80;101130.94;1683667;85;21235;-76
2021/04/11 01:04:23;;;;;;;32.70;16.05;;;;;;;1.05;65.20;101130.91;1678606;85;21220;-75
2021/04/11 01:06:59;;;;;;;44.42;21.37;;;;;;;1.00;65.81;101134.71;1678715;84;21214;-75
2021/04/11 01:09:35;;;;;;;46.02;21.02;;;;;;;0.98;65.44;101135.10;1670834;79;21157;-68
2021/04/11 01:12:07;;;;;;;33.38;15.70;;;;;;;0.92;65.03;101129.83;1608805;89;21141;-67
2021/04/11 01:14:37;;;;;;;42.67;21.35;;;;;;;0.89;65.73;101136.66;1607829;89;21220;-69
2021/04/11 01:17:12;;;;;;;46.63;21.82;;;;;;;0.84;65.99;101141.77;1608654;89;21762;-68
2021/04/11 01:19:42;;;;;;;41.92;21.27;;;;;;;0.78;66.50;101138.64;1607875;89;21280;-67
2021/04/11 01:22:24;;;;;;;40.25;20.35;;;;;;;0.72;66.85;101138.52;1608645;89;21204;-69
2021/04/11 01:24:56;;;;;;;45.28;21.05;;;;;;;0.65;66.24;101131.91;1638788;80;21201;-72
2021/04/11 01:27:34;;;;;;;46.33;21.93;;;;;;;0.62;66.49;101136.18;1654063;85;21400;-72
2021/04/11 01:30:28;;;;;;;34.78;17.90;;;;;;;0.58;66.96;101131.77;1673517;85;21210;-71
2021/04/11 01:32:57;;;;;;;45.98;20.23;;;;;;;0.56;67.15;101136.05;1673588;85;21202;-70
2021/04/11 01:35:27;;;;;;;45.12;20.62;;;;;;;0.55;66.50;101131.72;1642406;85;21186;-71
2021/04/11 01:37:56;;;;;;;45.30;20.90;;;;;;;0.50;66.18;101135.91;1654285;85;21730;-72
2021/04/11 01:40:36;;;;;;;44.30;20.27;;;;;;;0.48;66.18;101138.89;1699625;82;21394;-69
2021/04/11 01:43:06;;;;;;;44.03;21.93;;;;;;;0.45;66.22;101144.02;1721739;82;21511;-70
2021/04/11 01:45:37;;;;;;;37.73;18.75;;;;;;;0.43;66.37;101138.36;1662502;85;21691;-69
2021/04/11 01:48:08;;;;;;;42.30;21.07;;;;;;;0.42;66.46;101134.90;1745208;81;21169;-69
2021/04/11 01:50:37;;;;;;;41.98;20.77;;;;;;;0.37;67.29;101139.98;1764205;80;21157;-70
2021/04/11 01:53:06;;;;;;;41.08;20.37;;;;;;;0.36;66.98;101149.02;1744925;81;21393;-70
2021/04/11 01:55:36;;;;;;;;;;;;;;;0.30;66.94;101152.37;1707142;80;21249;-74
2021/04/11 01:58:07;;;;;;;30.55;16.82;;;;;;;0.26;66.70;101147.09;1660593;85;20257;-74
2021/04/11 02:00:48;;;;;;;34.13;16.65;;;;;;;0.18;66.80;101146.51;1660311;86;21213;-73
2021/04/11 02:03:19;;;;;;;45.70;21.70;;;;;;;0.15;67.46;101143.83;1660549;86;21174;-74
2021/04/11 02:05:48;;;;;;;45.10;21.30;;;;;;;0.15;67.78;101144.26;1660661;86;22449;-73
2021/04/11 02:08:22;;;;;;;41.53;20.27;;;;;;;0.12;67.93;101153.27;1660576;86;21208;-73
2021/04/11 02:10:54;;;;;;;52.73;23.32;;;;;;;0.10;68.03;101150.63;1684721;81;21608;-69
2021/04/11 02:13:30;;;;;;;46.83;23.38;;;;;;;0.09;68.62;101151.48;1695101;84;21215;-68
2021/04/11 02:16:01;;;;;;;45.60;22.75;;;;;;;0.06;68.70;101153.98;1668198;84;21164;-69
2021/04/11 02:18:33;;;;;;;49.50;24.05;;;;;;;0.04;69.15;101156.96;1695172;84;21172;-69
2021/04/11 02:21:07;;;;;;;48.48;23.15;;;;;;;0.02;68.65;101157.34;1695140;84;21137;-71
2021/04/11 02:23:36;;;;;;;39.03;20.10;;;;;;;0.00;69.11;101164.23;1694611;80;21183;-72
2021/04/11 02:26:08;;;;;;;43.68;22.32;;;;;;;-0.02;69.44;101158.14;1698471;82;21158;-72
2021/04/11 02:28:38;;;;;;;46.88;22.75;;;;;;;-0.05;68.98;101163.23;1698384;84;21099;-71
2021/04/11 02:31:18;;;;;;;39.73;19.25;;;;;;;-0.08;68.80;101165.76;1698514;84;22383;-71
2021/04/11 02:34:04;;;;;;;38.50;18.57;;;;;;;-0.07;68.79;101164.91;1845803;76;22795;-70
2021/04/11 02:36:47;;;;;;;43.15;21.30;;;;;;;-0.15;69.00;101163.88;1816160;78;21765;-71
2021/04/11 02:39:19;;;;;;;39.92;21.00;;;;;;;-0.17;69.03;101172.02;1732388;76;21245;-73
2021/04/11 02:41:48;;;;;;;42.67;19.90;;;;;;;-0.20;69.46;101175.84;1698819;84;21222;-75
2021/04/11 02:44:17;;;;;;;43.05;20.72;;;;;;;-0.22;69.66;101180.97;1698568;84;21197;-75
2021/04/11 02:46:46;;;;;;;45.83;22.93;;;;;;;-0.26;69.77;101173.54;1698645;84;21201;-76
2021/04/11 02:49:19;;;;;;;42.33;21.70;;;;;;;-0.28;69.86;101176.94;1692152;83;21169;-76
2021/04/11 02:51:48;;;;;;;42.83;20.55;;;;;;;-0.30;70.02;101182.09;1698588;84;21386;-76
2021/04/11 02:54:20;;;;;;;41.80;20.62;;;;;;;-0.32;70.24;101190.24;1751337;79;21660;-68
2021/04/11 02:56:51;;;;;;;38.40;18.60;;;;;;;-0.36;70.16;101184.52;1767490;81;21186;-69
2021/04/11 02:59:21;;;;;;;50.33;23.18;;;;;;;-0.38;70.39;101187.49;1734931;82;21205;-69
2021/04/11 03:01:50;;;;;;;41.93;20.40;;;;;;;-0.39;70.67;101193.52;1735948;81;21237;-69
2021/04/11 03:04:22;;;;;;;47.70;20.73;;;;;;;-0.42;70.56;101201.19;1767565;81;21367;-68
2021/04/11 03:06:59;;;;;;;45.08;22.25;;;;;;;-0.42;71.05;101193.42;1706158;84;21493;-67
2021/04/11 03:09:48;;;;;;;46.63;22.37;;;;;;;-0.43;71.36;101203.33;1756304;80;21171;-74
2021/04/11 03:12:18;;;;;;;47.23;22.50;;;;;;;-0.47;71.21;101196.32;1743917;82;21183;-75
2021/04/11 03:14:48;;;;;;;49.53;23.47;;;;;;;-0.49;70.64;101200.58;1744226;82;21198;-73
2021/04/11 03:17:21;;;;;;;53.05;25.08;;;;;;;-0.50;70.64;101201.44;1743925;82;21394;-73
2021/04/11 03:20:08;;;;;;;38.95;19.95;;;;;;;-0.52;70.60;101203.10;1743899;82;21190;-73
2021/04/11 03:22:38;;;;;;;37.73;18.60;;;;;;;-0.54;70.54;101211.24;1744331;76;21178;31
2021/04/11 03:25:11;;;;;;;44.73;20.48;;;;;;;-0.56;71.28;101219.38;1733555;82;21223;-69
2021/04/11 03:27:51;;;;;;;42.50;22.45;;;;;;;-0.55;71.59;101226.29;1737018;82;21208;-69
2021/04/11 03:30:27;;;;;;;46.25;24.07;;;;;;;-0.55;71.81;101227.59;1746614;81;21242;-69
2021/04/11 03:33:05;;;;;;;46.92;23.35;;;;;;;-0.53;71.72;101232.38;1813574;79;21670;-68
2021/04/11 03:35:36;;;;;;;49.77;23.60;;;;;;;-0.48;71.29;101233.41;1813321;79;21190;-68
2021/04/11 03:38:04;;;;;;;47.55;23.67;;;;;;;-0.41;70.84;101228.84;1798767;78;21973;-71
2021/04/11 03:40:34;;;;;;;45.48;22.10;;;;;;;-0.37;71.31;101236.24;1701069;84;21458;-72
2021/04/11 03:43:07;;;;;;;46.80;22.02;;;;;;;-0.33;71.55;101240.23;1701362;84;25725;-72
2021/04/11 03:45:37;;;;;;;30.57;16.40;;;;;;;-0.30;71.30;101240.34;1675088;84;21114;-72
2021/04/11 04:03:09;;;;;;;44.33;24.20;;;;;;;2.91;65.79;101263.63;1865912;75;27771;-73
2021/04/11 04:05:38;;;;;;;50.25;25.97;;;;;;;3.53;63.41;101269.96;1837331;77;21172;-70
2021/04/11 04:08:08;;;;;;;52.98;26.27;;;;;;;4.07;61.49;101263.95;1775271;80;21358;-69
2021/04/11 04:10:44;;;;;;;46.13;24.12;;;;;;;4.51;59.59;101261.17;1753079;80;21624;-69
2021/04/11 04:13:25;;;;;;;50.83;24.35;;;;;;;4.94;58.48;101266.62;1748513;80;21194;-69
2021/04/11 04:19:09;;;;;;;50.20;25.05;;;;;;;5.90;56.24;101263.36;1774321;79;76059;-70
2021/04/11 04:21:59;;;;;;;54.08;27.10;;;;;;;6.47;54.65;101262.91;1736820;80;21220;-74
2021/04/11 04:25:03;;;;;;;70.63;32.17;;;;;;;6.97;53.16;101271.91;1768270;80;21189;-77
2021/04/11 04:27:59;;;;;;;65.55;31.27;;;;;;;7.46;51.02;101272.55;1770162;80;21184;-79
2021/04/11 04:31:01;;;;;;;68.10;32.58;;;;;;;7.97;50.73;101274.83;1748497;80;21192;-78
2021/04/11 04:34:06;;;;;;;81.70;37.55;;;;;;;8.42;48.20;101269.20;1769503;77;21307;-69
2021/04/11 04:37:02;;;;;;;70.65;33.28;;;;;;;8.92;46.37;101273.90;1710637;81;21423;-70
2021/04/11 04:39:58;;;;;;;61.68;30.52;;;;;;;9.38;45.51;101273.77;1702879;82;21287;-69
2021/04/11 04:42:57;;;;;;;56.40;28.92;;;;;;;9.82;43.51;101264.34;1764407;79;21178;-70
2021/04/11 04:45:44;;;;;;;67.35;32.25;;;;;;;10.29;42.39;101272.80;1742679;80;21186;-70
2021/04/11 04:48:30;;;;;;;50.45;25.45;;;;;;;10.71;40.95;101275.98;1756851;80;21447;-69
2021/04/11 04:51:31;;;;;;;51.95;27.45;;;;;;;11.27;40.37;101265.17;1871557;76;28977;-78
2021/04/11 04:54:24;;;;;;;49.55;28.12;;;;;;;11.55;40.20;101274.68;1795714;78;21206;-79
2021/04/11 04:57:20;;;;;;;52.53;29.42;;;;;;;11.93;37.91;101268.97;1766110;80;21192;-78
2021/04/11 05:00:28;;;;;;;47.65;25.52;;;;;;;12.28;37.38;101273.35;1757166;79;21915;-77
2021/04/11 05:03:38;;;;;;;48.02;26.23;;;;;;;12.63;36.29;101271.58;1800531;79;21202;-78
2021/04/11 05:06:41;;;;;;;49.83;25.75;;;;;;;12.99;34.91;101275.40;1881745;74;22921;-70
2021/04/11 05:09:36;;;;;;;34.73;20.10;;;;;;;13.31;34.42;101276.27;1886948;74;22698;-72
2021/04/11 05:12:16;;;;;;;31.62;18.25;;;;;;;13.50;32.28;101278.75;1846157;75;21135;-69
2021/04/11 05:14:52;;;;;;;31.10;18.37;;;;;;;13.67;33.17;101278.25;1760343;78;21371;-70
2021/04/11 05:17:31;;;;;;;26.87;16.40;;;;;;;13.71;31.29;101279.89;1730805;81;21222;-71
2021/04/11 05:20:07;;;;;;;32.33;17.70;;;;;;;13.62;29.66;101285.01;1753215;77;21057;-77
2021/04/11 05:22:59;;;;;;;32.17;18.15;;;;;;;13.33;29.70;101286.35;1738709;81;21599;-79
2021/04/11 05:25:49;;;;;;;32.00;18.02;;;;;;;13.11;30.30;101290.94;1722779;82;21194;-78
2021/04/11 05:28:35;;;;;;;35.10;18.95;;;;;;;13.10;32.32;101289.19;1723910;82;22519;-78
2021/04/11 05:31:10;;;;;;;31.45;19.05;;;;;;;13.40;33.35;101286.58;1728374;81;21151;-77
2021/04/11 05:33:41;;;;;;;36.03;19.05;;;;;;;13.72;30.61;101278.10;1748053;77;21131;-67
2021/04/11 05:36:38;;;;;;;33.63;19.77;;;;;;;13.94;29.54;101281.80;1687301;82;21676;-70
2021/04/11 05:39:34;;;;;;;33.58;19.82;;;;;;;14.02;30.21;101282.39;1713988;82;21681;-69
2021/04/11 05:42:45;;;;;;;30.75;16.90;;;;;;;14.11;28.74;101283.02;1704073;83;21232;-70
2021/04/11 05:45:41;;;;;;;32.90;18.90;;;;;;;14.36;30.94;101279.94;1672229;84;21594;-70
2021/04/11 05:48:47;;;;;;;33.88;17.65;;;;;;;14.60;29.58;101286.66;1691534;82;21629;-69
2021/04/11 05:51:25;;;;;;;27.32;16.85;;;;;;;14.82;27.60;101281.47;1697082;82;21129;-75
2021/04/11 05:53:58;;;;;;;27.27;17.75;;;;;;;14.84;27.52;101287.58;1721662;82;21209;-75
2021/04/11 05:56:42;;;;;;;30.12;17.23;;;;;;;14.89;27.79;101283.83;1724306;82;21795;-74
2021/04/11 05:59:14;;;;;;;31.12;18.55;;;;;;;15.14;27.42;101288.23;1739250;82;21233;-74
2021/04/11 06:01:50;;;;;;;31.77;17.60;;;;;;;15.36;27.39;101290.06;1740000;82;21146;-75
2021/04/11 06:04:26;;;;;;;27.52;17.92;;;;;;;15.72;27.04;101283.80;1726818;79;21250;-68
2021/04/11 06:07:14;;;;;;;27.90;17.90;;;;;;;16.01;27.00;101283.95;1699724;84;21456;-70
2021/04/11 06:09:57;;;;;;;30.37;16.17;;;;;;;16.52;25.76;101284.47;1712178;82;21207;-70
2021/04/11 06:13:13;;;;;;;27.90;17.87;;;;;;;17.03;25.92;101288.44;1719791;82;21151;-71
2021/04/11 06:15:44;;;;;;;29.30;17.40;;;;;;;17.28;25.95;101284.66;1718523;82;21685;-70
2021/04/11 06:18:13;;;;;;;28.20;18.15;;;;;;;17.62;25.12;101286.55;1708161;81;21602;-70
2021/04/11 06:20:45;;;;;;;31.97;18.77;;;;;;;17.96;25.07;101283.14;1720290;79;21199;-76
2021/04/11 06:23:29;;;;;;;26.33;17.50;;;;;;;18.23;24.67;101278.23;1707959;82;21374;-75
2021/04/11 06:26:11;;;;;;;32.63;18.52;;;;;;;18.48;24.21;101276.98;1722971;82;21245;-76
2021/04/11 06:29:08;;;;;;;31.48;18.12;;;;;;;18.73;24.04;101277.05;1712890;83;21655;-75
2021/04/11 06:31:43;;;;;;;32.40;19.02;;;;;;;19.11;23.78;101283.48;1710893;82;21191;-75
2021/04/11 06:34:18;;;;;;;24.27;16.62;;;;;;;19.42;23.21;101281.33;1711476;79;22884;-71
2021/04/11 06:36:48;;;;;;;29.87;18.30;;;;;;;19.55;23.20;101276.15;1704796;82;21395;-69
2021/04/11 06:39:25;;;;;;;;;;;;;;;19.79;22.37;101281.47;1705888;82;21230;-71
2021/04/11 06:42:31;;;;;;;29.00;17.48;;;;;;;19.84;22.58;101287.41;1705912;82;20286;-69
2021/04/11 06:45:18;;;;;;;27.65;16.95;;;;;;;20.04;22.18;101280.06;1708405;82;21221;-70
2021/04/11 06:48:24;;;;;;;31.05;17.60;;;;;;;20.21;22.14;101282.59;1654785;83;21215;-71
2021/04/11 06:51:18;;;;;;;28.75;17.15;;;;;;;20.42;22.17;101291.15;1708310;80;21235;-74
2021/04/11 06:54:13;;;;;;;32.58;18.37;;;;;;;20.59;21.17;101290.64;1721815;83;21764;-74
2021/04/11 06:57:18;;;;;;;24.98;14.83;;;;;;;20.59;20.78;101292.86;1719236;83;21254;-76
2021/04/11 07:00:14;;;;;;;27.22;16.73;;;;;;;20.59;21.33;101292.86;1712288;83;21130;-77
2021/04/11 07:03:24;;;;;;;33.70;17.30;;;;;;;21.00;21.19;101297.47;1719340;83;21183;-75
2021/04/11 07:06:12;;;;;;;28.55;15.78;;;;;;;21.53;20.60;101287.90;1722542;78;22390;-70
2021/04/11 07:09:21;;;;;;;26.65;14.18;;;;;;;21.90;20.58;101295.33;1731178;81;21216;-71
2021/04/11 07:12:02;;;;;;;23.40;14.83;;;;;;;22.10;19.69;101296.70;1722221;81;21196;-70
2021/04/11 07:14:48;;;;;;;23.40;14.55;;;;;;;22.47;19.57;101298.26;1697832;82;21759;-69
2021/04/11 07:17:48;;;;;;;23.85;15.85;;;;;;;22.72;19.23;101298.28;1715176;82;21125;-69
2021/04/11 07:20:58;;;;;;;19.55;11.93;;;;;;;22.83;18.50;101302.91;1735449;76;21491;-75
2021/04/11 07:24:15;;;;;;;20.80;12.25;;;;;;;22.67;18.58;101307.14;1701783;82;21739;-76
2021/04/11 07:27:12;;;;;;;26.20;13.00;;;;;;;22.56;17.49;101295.80;1696720;82;21783;-74
2021/04/11 07:29:46;;;;;;;21.97;13.13;;;;;;;22.66;18.25;101299.19;1693299;82;21145;-75
2021/04/11 07:33:03;;;;;;;24.57;14.33;;;;;;;23.05;18.94;101300.92;1665795;84;21181;-74
2021/04/11 07:36:13;;;;;;;22.77;13.83;;;;;;;23.39;18.05;101298.52;1709159;79;24007;-70
2021/04/11 07:39:18;;;;;;;23.97;13.17;;;;;;;23.62;17.46;101301.72;1656416;84;21277;-69
2021/04/11 07:42:03;;;;;;;21.77;12.45;;;;;;;23.72;18.01;101303.73;1665716;84;21421;-72
2021/04/11 07:45:02;;;;;;;17.95;11.85;;;;;;;23.77;17.18;101307.00;1665070;85;21202;-70
2021/04/11 07:47:47;;;;;;;22.37;11.30;;;;;;;23.51;16.76;101297.61;1668772;85;21202;-69
2021/04/11 07:50:52;;;;;;;18.45;10.38;;;;;;;23.16;17.02;101302.86;1684337;82;21310;-75
2021/04/11 07:53:49;;;;;;;14.78;8.43;;;;;;;23.10;17.64;101302.83;1706965;83;21198;-75
2021/04/11 07:56:49;;;;;;;18.60;8.98;;;;;;;23.13;15.74;101298.56;1710008;82;21666;-76
2021/04/11 07:59:57;;;;;;;13.95;7.90;;;;;;;22.99;16.45;101298.70;1702380;83;21199;-75
2021/04/11 08:03:03;;;;;;;15.88;8.85;;;;;;;23.12;17.29;101304.04;1685765;83;21257;-76
2021/04/11 08:05:58;;;;;;;12.00;6.92;;;;;;;23.41;16.46;101301.46;1709372;80;21569;-74
2021/04/11 08:09:18;;;;;;;12.25;7.08;;;;;;;23.39;14.98;101299.37;1706575;82;21257;-75
2021/04/11 08:12:21;;;;;;;15.40;8.93;;;;;;;23.30;15.31;101305.41;1731781;81;21221;-76
2021/04/11 08:15:26;;;;;;;15.13;7.62;;;;;;;23.60;16.31;101303.69;1744518;81;21186;-76
2021/04/11 08:18:21;;;;;;;14.23;8.23;;;;;;;24.18;15.10;101294.94;1745613;81;21210;-74
2021/04/11 08:21:27;;;;;;;10.70;6.85;;;;;;;24.51;14.45;101290.70;1691111;80;21398;-68
2021/04/11 08:24:33;;;;;;;13.05;6.92;;;;;;;23.98;14.79;101293.77;1666277;85;22097;-70
2021/04/11 08:27:45;;;;;;;13.13;7.00;;;;;;;23.48;15.01;101297.00;1639742;87;21154;-69
2021/04/11 08:31:07;;;;;;;12.20;7.30;;;;;;;23.16;15.58;101295.65;1665458;86;21206;-72
2021/04/11 08:33:57;;;;;;;;;;;;;;;23.33;16.65;101297.61;1655648;85;21223;-69
2021/04/11 08:36:47;;;;;;;13.60;6.58;;;;;;;23.71;15.68;101295.30;1678333;83;21265;-72
2021/04/11 08:39:36;;;;;;;12.00;6.87;;;;;;;23.78;15.55;101296.60;1686144;84;21262;-74
2021/04/11 08:42:11;;;;;;;10.72;6.12;;;;;;;23.46;16.20;101283.66;1662189;84;21158;-75
2021/04/11 08:44:59;;;;;;;10.05;6.53;;;;;;;23.35;15.31;101288.95;1692371;83;21685;-76
2021/04/11 08:47:54;;;;;;;11.22;6.72;;;;;;;23.18;15.41;101292.38;1704906;84;21187;-76
2021/04/11 08:50:36;;;;;;;10.65;6.08;;;;;;;23.16;15.07;101290.28;1701411;81;21383;-72
2021/04/11 08:53:29;;;;;;;11.80;6.15;;;;;;;23.16;14.62;101284.91;1734342;82;21186;-71
2021/04/11 08:56:33;;;;;;;13.32;6.45;;;;;;;23.23;15.27;101275.42;1760751;80;21206;-69
2021/04/11 08:59:15;;;;;;;11.60;7.08;;;;;;;23.16;15.17;101284.05;1755812;81;21205;-69
2021/04/11 09:01:54;;;;;;;9.75;6.70;;;;;;;22.54;16.08;101279.42;1755202;80;21110;-70
2021/04/11 09:07:39;;;;;;;11.43;6.87;;;;;;;22.07;16.10;101276.80;1705094;82;21126;-71
2021/04/11 09:10:35;;;;;;;12.37;6.47;;;;;;;22.17;16.58;101266.66;1709470;83;21455;-70
2021/04/11 09:13:27;;;;;;;11.53;6.87;;;;;;;22.73;16.47;101263.77;1710466;83;21085;-71
2021/04/11 09:16:06;;;;;;;10.30;6.65;;;;;;;23.35;15.87;101246.83;1708304;83;21201;-72
2021/04/11 09:18:51;;;;;;;10.38;6.78;;;;;;;23.92;14.62;101246.66;1710901;83;21215;-71
2021/04/11 09:21:46;;;;;;;11.70;6.33;;;;;;;23.79;15.10;101245.39;1719231;79;21165;-75
2021/04/11 09:24:24;;;;;;;8.35;6.00;;;;;;;23.45;15.61;101245.66;1721569;83;21226;-75
2021/04/11 09:27:17;;;;;;;10.70;6.50;;;;;;;23.20;15.40;101239.38;1687139;83;21230;-75
2021/04/11 09:30:19;;;;;;;9.80;5.95;;;;;;;22.97;15.26;101247.72;1721393;83;21226;-75
2021/04/11 09:32:55;;;;;;;10.38;6.17;;;;;;;22.89;14.49;101246.55;1721702;82;21434;-76
2021/04/11 09:35:31;;;;;;;10.32;5.67;;;;;;;23.14;15.26;101246.53;1720873;81;21256;-71
2021/04/11 09:38:13;;;;;;;10.85;6.53;;;;;;;22.87;14.97;101245.80;1727279;83;22504;-70
2021/04/11 09:41:13;;;;;;;8.33;5.55;;;;;;;22.37;16.07;101241.19;1708800;83;21165;-71
2021/04/11 09:44:12;;;;;;;9.40;5.97;;;;;;;22.50;16.40;101232.27;1726770;83;21154;-71
2021/04/11 09:47:25;;;;;;;9.80;5.60;;;;;;;22.77;14.73;101234.36;1708321;83;21210;-71
2021/04/11 09:50:08;;;;;;;10.08;6.55;;;;;;;22.78;15.23;101230.73;1726959;82;21202;-70
2021/04/11 09:53:09;;;;;;;8.88;6.12;;;;;;;22.55;15.19;101236.86;1708617;83;21194;-72
2021/04/11 09:55:52;;;;;;;10.30;6.20;;;;;;;22.13;14.68;101241.48;1726291;82;21625;-73
2021/04/11 09:58:43;;;;;;;9.63;6.47;;;;;;;21.74;15.17;101232.02;1683568;79;21531;-69
2021/04/11 10:01:45;;;;;;;8.95;5.55;;;;;;;21.75;16.51;101230.19;1703473;83;21209;-69
2021/04/11 10:04:51;;;;;;;9.63;6.15;;;;;;;22.18;16.18;101229.98;1716484;83;21222;-70
2021/04/11 10:07:44;;;;;;;14.03;7.20;;;;;;;22.57;15.63;101228.22;1716908;83;21215;-70
2021/04/11 10:10:54;;;;;;;13.95;7.35;;;;;;;22.85;15.39;101231.64;1713113;82;21320;-69
2021/04/11 10:13:48;;;;;;;15.60;8.38;;;;;;;22.71;15.81;101233.48;1708945;81;21241;-80
2021/04/11 10:16:43;;;;;;;11.83;7.58;;;;;;;22.90;14.98;101236.20;1707343;82;22128;-78
2021/04/11 10:19:42;;;;;;;13.25;7.83;;;;;;;22.80;15.40;101226.11;1721366;82;21206;-79
2021/04/11 10:22:39;;;;;;;12.63;8.20;;;;;;;23.03;15.68;101219.61;1677819;82;21241;-79
2021/04/11 10:25:33;;;;;;;13.75;7.85;;;;;;;23.29;15.45;101218.20;1711362;82;21208;-80
2021/04/11 10:28:28;;;;;;;16.52;8.75;;;;;;;23.01;14.15;101220.20;1632040;84;21220;-68
2021/04/11 10:31:45;;;;;;;14.10;9.30;;;;;;;22.17;15.80;101220.20;1640973;86;21432;-70
2021/04/11 10:37:33;;;;;;;12.10;8.00;;;;;;;21.32;16.69;101223.58;1821781;77;23161;-69
2021/04/11 10:40:09;;;;;;;13.68;8.08;;;;;;;21.36;16.43;101213.05;1760337;79;21147;-68
2021/04/11 10:43:20;;;;;;;16.12;7.85;;;;;;;21.88;16.30;101211.44;1754065;81;21645;-70
2021/04/11 10:45:58;;;;;;;18.42;8.33;;;;;;;22.56;17.43;101211.23;1747137;80;21148;-80
2021/04/11 10:48:55;;;;;;;13.13;7.90;;;;;;;22.54;15.57;101213.16;1731229;81;21751;-79
2021/04/11 10:51:46;;;;;;;11.08;7.42;;;;;;;21.78;15.25;101214.73;1750622;80;21634;-77
2021/04/11 10:55:01;;;;;;;11.63;8.00;;;;;;;21.48;15.35;101199.36;1764456;80;21155;-78
2021/04/11 10:58:16;;;;;;;15.32;7.85;;;;;;;21.67;15.96;101204.36;1749778;80;21386;-79
2021/04/11 11:01:09;;;;;;;14.75;7.83;;;;;;;21.89;15.58;101205.12;1737506;80;21175;-79
2021/04/11 11:04:04;;;;;;;16.10;8.58;;;;;;;21.71;15.81;101193.81;1742939;80;21232;-81
2021/04/11 11:07:09;;;;;;;13.88;8.08;;;;;;;22.15;16.72;101196.64;1724584;81;21195;-78
2021/04/11 11:09:49;;;;;;;14.15;8.35;;;;;;;21.62;14.85;101201.12;1716586;82;21182;-79
2021/04/11 11:12:42;;;;;;;10.82;8.43;;;;;;;21.01;16.09;101194.77;1716927;82;21873;-79
2021/04/11 11:15:21;;;;;;;10.25;7.33;;;;;;;20.98;15.86;101196.31;1723892;83;21188;-79
2021/04/11 11:18:23;;;;;;;14.10;7.83;;;;;;;21.12;16.79;101184.72;1721943;83;22328;-78
2021/04/11 11:21:00;;;;;;;15.45;8.35;;;;;;;21.31;16.02;101179.01;1723400;82;21216;-78
2021/04/11 11:23:51;;;;;;;13.35;8.78;;;;;;;21.24;16.61;101179.89;1734462;82;21218;-78
2021/04/11 11:30:12;;;;;;;13.95;8.18;;;;;;;21.20;16.21;101170.81;1782807;79;22706;-78
2021/04/11 11:33:06;;;;;;;15.38;9.15;;;;;;;20.98;16.99;101162.84;1682947;84;21232;-78
2021/04/11 11:35:58;;;;;;;15.55;9.40;;;;;;;20.79;17.02;101172.98;1727061;81;21352;-78
2021/04/11 11:38:35;;;;;;;16.65;8.78;;;;;;;20.46;16.96;101166.94;1763066;80;21192;-78
2021/04/11 11:41:15;;;;;;;13.30;8.03;;;;;;;20.44;16.54;101159.97;1757381;80;21168;-79
2021/04/11 11:44:00;;;;;;;15.48;9.20;;;;;;;20.56;17.98;101151.20;1744424;80;21168;-78
2021/04/11 11:46:54;;;;;;;15.68;9.08;;;;;;;20.84;17.66;101152.98;1721662;82;21174;-78
2021/04/11 11:49:30;;;;;;;12.35;8.63;;;;;;;20.98;16.40;101144.09;1734892;82;21794;-78
2021/04/11 11:52:21;;;;;;;17.10;8.55;;;;;;;20.79;17.08;101153.77;1745637;82;21628;-78
2021/04/11 11:55:16;;;;;;;15.85;9.03;;;;;;;20.82;17.85;101143.33;1745833;80;21186;-78
2021/04/11 11:58:10;;;;;;;12.90;8.48;;;;;;;21.06;16.98;101141.77;1776392;80;21126;-79
2021/04/11 12:00:44;;;;;;;14.70;8.80;;;;;;;21.26;18.07;101140.95;1765068;80;21164;-77
2021/04/11 12:03:32;;;;;;;13.75;8.63;;;;;;;21.32;16.47;101139.19;1776769;80;21149;-78
2021/04/11 12:06:27;;;;;;;16.93;8.85;;;;;;;21.42;16.50;101136.33;1768399;80;21171;-78
2021/04/11 12:09:03;;;;;;;16.82;9.23;;;;;;;21.65;16.32;101135.23;1717498;81;21205;-78
2021/04/11 12:12:01;;;;;;;16.52;9.50;;;;;;;21.85;16.48;101137.43;1722862;82;21213;-79
2021/04/11 12:14:50;;;;;;;19.27;10.50;;;;;;;21.98;16.79;101128.92;1733868;81;21694;-78
2021/04/11 12:17:49;;;;;;;18.55;11.33;;;;;;;21.87;16.06;101135.50;1760535;81;21372;-78
2021/04/11 12:20:29;;;;;;;17.10;11.83;;;;;;;21.46;16.44;101128.44;1760473;81;21350;-80
2021/04/11 12:23:16;;;;;;;22.70;12.18;;;;;;;21.13;16.69;101116.29;1742735;82;21183;-79
2021/04/11 12:25:44;;;;;;;18.77;11.48;;;;;;;21.18;17.78;101124.02;1727250;81;21170;-79
2021/04/11 12:31:46;;;;;;;15.85;10.18;;;;;;;21.00;17.29;101111.84;1834541;78;23269;-78
2021/04/11 12:34:41;;;;;;;16.07;9.38;;;;;;;20.67;16.50;101120.61;1807366;79;21192;-77
2021/04/11 12:37:24;;;;;;;14.60;9.03;;;;;;;20.37;16.37;101109.14;1791979;79;21265;-78
2021/04/11 12:40:09;;;;;;;14.40;8.43;;;;;;;20.10;16.55;101116.56;1775202;80;21143;-78
2021/04/11 12:42:53;;;;;;;13.10;8.25;;;;;;;19.71;16.65;101116.69;1798363;79;21131;-77
2021/04/11 12:45:48;;;;;;;17.25;10.45;;;;;;;19.24;17.29;101111.82;1784051;79;21182;-79
2021/04/11 12:48:33;;;;;;;19.67;11.12;;;;;;;19.11;17.93;101116.13;1780247;79;21167;-79
2021/04/11 12:51:30;;;;;;;16.52;9.58;;;;;;;19.06;18.26;101120.40;1793015;79;22355;-79
2021/04/11 12:54:18;;;;;;;15.63;9.23;;;;;;;19.01;19.67;101123.81;1788624;79;21183;-79
2021/04/11 12:56:57;;;;;;;14.28;9.73;;;;;;;18.69;19.17;101119.39;1807105;79;21167;-79
2021/04/11 13:00:02;;;;;;;19.42;10.78;;;;;;;18.42;18.41;101105.27;1793360;79;21162;-78
2021/04/11 13:02:54;;;;;;;20.77;11.43;;;;;;;18.43;19.64;101114.53;1792919;79;21151;-78
2021/04/11 13:05:43;;;;;;;;;;;;;;;18.56;19.00;101104.52;1795146;79;21203;-78
2021/04/11 13:08:40;;;;;;;18.12;10.25;;;;;;;18.74;20.67;101101.31;1780362;79;20711;-79